Time;durP1;ratioP1;P1;durP2;ratioP2;P2;SDS_P1;SDS_P2;PMS_P1;PMS_P2;Temp;Humidity;BMP_temperature;BMP_pressure;BME280_temperature;BME280_humidity;BME280_pressure;Samples;Min_cycle;Max_cycle;Signal;HPM_P1;HPM_P2
2023/12/03 00:02:21;;;;;;;;;11.60;9.80;;;;;0.81;79.91;100088.63;5017425;28;8872;-90
2023/12/03 00:04:48;;;;;;;;;6.80;6.80;;;;;0.81;80.38;100099.09;5016376;28;8862;-90
2023/12/03 00:07:16;;;;;;;;;11.60;11.20;;;;;0.81;80.13;100101.72;5021968;28;8970;-91
2023/12/03 00:09:45;;;;;;;;;6.40;4.80;;;;;0.81;80.20;100086.00;5036187;28;8853;-90
2023/12/03 00:12:13;;;;;;;;;10.40;10.40;;;;;0.80;80.21;100084.31;5036476;28;8841;-90
2023/12/03 00:14:41;;;;;;;;;8.60;8.20;;;;;0.81;79.84;100085.13;5036412;28;8922;-90
2023/12/03 00:17:09;;;;;;;;;6.20;6.20;;;;;0.80;79.79;100084.31;5035996;28;8850;-90
2023/12/03 00:19:37;;;;;;;;;9.40;9.40;;;;;0.81;80.15;100082.50;5035899;28;8852;-90
2023/12/03 00:22:05;;;;;;;;;12.00;8.20;;;;;0.79;80.37;100082.59;5033582;28;8845;-90
2023/12/03 00:24:32;;;;;;;;;7.80;6.60;;;;;0.80;79.65;100084.31;5036229;28;8983;-90
2023/12/03 00:27:01;;;;;;;;;12.20;9.80;;;;;0.80;80.36;100080.81;5034853;28;8856;-90
2023/12/03 00:29:28;;;;;;;;;9.00;9.00;;;;;0.79;80.01;100082.59;5033948;28;8972;-90
2023/12/03 00:31:56;;;;;;;;;10.40;10.00;;;;;0.81;79.94;100090.38;5033562;28;8872;-90
2023/12/03 00:34:24;;;;;;;;;3.00;1.00;;;;;0.81;79.81;100085.13;5033638;28;8832;-90
2023/12/03 00:36:52;;;;;;;;;3.80;3.80;;;;;0.81;79.73;100086.00;5034432;28;8908;-90
2023/12/03 00:39:20;;;;;;;;;7.00;7.00;;;;;0.82;79.98;100086.84;5034962;28;8848;-90
2023/12/03 00:41:48;;;;;;;;;10.20;10.20;;;;;0.81;80.13;100086.00;5035494;28;8860;-90
2023/12/03 00:44:16;;;;;;;;;9.00;7.00;;;;;0.83;80.00;100097.28;5036071;28;8868;-90
2023/12/03 00:46:43;;;;;;;;;7.80;7.80;;;;;0.84;80.30;100092.91;5035129;28;9553;-90
2023/12/03 00:49:11;;;;;;;;;10.40;10.00;;;;;0.83;80.79;100097.28;5034777;28;8870;-91
2023/12/03 00:51:39;;;;;;;;;10.20;9.80;;;;;0.84;80.44;100095.53;5035016;28;8963;-90
2023/12/03 00:54:07;;;;;;;;;8.00;6.40;;;;;0.84;80.07;100090.28;5035336;28;8864;-90
2023/12/03 00:56:35;;;;;;;;;13.00;10.80;;;;;0.85;80.17;100092.81;5035447;28;8837;-90
2023/12/03 00:59:02;;;;;;;;;11.40;9.80;;;;;0.85;80.43;100084.13;5035487;28;8858;-90
2023/12/03 01:01:30;;;;;;;;;9.40;9.40;;;;;0.85;80.42;100084.13;5035103;28;8858;-90
2023/12/03 01:03:58;;;;;;;;;8.60;8.00;;;;;0.86;80.51;100093.69;5034908;28;8889;-90
2023/12/03 01:06:27;;;;;;;;;6.40;6.40;;;;;0.86;80.21;100094.53;5034922;28;8853;-90
2023/12/03 01:08:55;;;;;;;;;10.60;10.60;;;;;0.86;80.37;100088.44;5034153;28;8976;-90
2023/12/03 01:11:23;;;;;;;;;7.00;6.80;;;;;0.86;80.12;100099.75;5033818;28;8832;-90
2023/12/03 01:14:02;;;;;;;;;4.20;3.00;;;;;0.87;80.71;100091.00;5034121;28;8852;-89
2023/12/03 01:16:31;;;;;;;;;11.40;11.00;;;;;0.90;80.61;100100.50;5034897;28;8907;-90
2023/12/03 01:18:58;;;;;;;;;8.20;6.80;;;;;0.89;80.37;100110.16;5034897;28;8868;-90
2023/12/03 01:21:26;;;;;;;;;10.80;9.80;;;;;0.90;80.50;100117.09;5035303;28;8865;-90
2023/12/03 01:23:54;;;;;;;;;13.20;8.40;;;;;0.90;80.42;100116.22;5034413;28;9498;-90
2023/12/03 01:26:21;;;;;;;;;21.00;16.20;;;;;0.91;80.25;100113.56;5034080;28;8856;-90
2023/12/03 01:28:49;;;;;;;;;11.60;10.20;;;;;0.92;79.88;100119.66;5032890;28;8860;-91
2023/12/03 01:31:17;;;;;;;;;11.20;10.00;;;;;0.92;80.66;100119.66;5033290;28;8860;-90
2023/12/03 01:33:45;;;;;;;;;8.20;7.60;;;;;0.92;80.02;100120.50;5037718;28;8852;-89
2023/12/03 01:36:13;;;;;;;;;12.40;10.40;;;;;0.93;80.15;100116.13;5038746;28;8914;-90
2023/12/03 01:38:41;;;;;;;;;9.40;9.20;;;;;0.92;80.49;100127.53;5038113;28;8923;-90
2023/12/03 01:41:09;;;;;;;;;10.00;9.00;;;;;0.91;80.35;100131.91;5037772;28;8889;-90
2023/12/03 01:43:37;;;;;;;;;6.00;3.80;;;;;0.91;80.34;100133.69;5038436;28;8844;-90
2023/12/03 01:46:04;;;;;;;;;4.00;2.40;;;;;0.89;79.99;100140.72;5038555;28;8848;-90
2023/12/03 01:48:32;;;;;;;;;9.20;9.20;;;;;0.89;80.52;100138.97;5038111;28;8857;-90
2023/12/03 01:51:01;;;;;;;;;7.20;6.40;;;;;0.89;80.66;100141.59;5038509;28;8836;-89
2023/12/03 01:53:28;;;;;;;;;6.60;6.60;;;;;0.88;80.52;100145.13;5038579;28;8840;-90
2023/12/03 01:55:57;;;;;;;;;12.40;9.40;;;;;0.86;80.35;100146.94;5037073;28;8863;-89
2023/12/03 01:58:24;;;;;;;;;6.00;5.20;;;;;0.87;80.72;100158.28;5036804;28;8856;-89
2023/12/03 02:00:52;;;;;;;;;8.60;8.20;;;;;0.87;80.17;100155.66;5036696;28;8833;-89
2023/12/03 02:03:20;;;;;;;;;10.40;9.40;;;;;0.88;80.57;100158.25;5035755;28;8848;-90
2023/12/03 02:05:47;;;;;;;;;11.60;10.00;;;;;0.86;80.44;100162.66;5036819;28;8865;-90
2023/12/03 02:08:15;;;;;;;;;10.40;10.00;;;;;0.86;80.35;100157.41;5036062;28;8837;-90
2023/12/03 02:10:43;;;;;;;;;7.80;6.60;;;;;0.84;80.45;100161.88;5036898;28;8844;-90
2023/12/03 02:13:10;;;;;;;;;10.00;9.40;;;;;0.81;80.69;100162.00;5037362;28;8854;-90
2023/12/03 02:15:38;;;;;;;;;8.40;6.20;;;;;0.79;80.59;100169.06;5036850;28;8837;-90
2023/12/03 02:18:06;;;;;;;;;10.80;10.40;;;;;0.77;80.28;100170.84;5036153;28;8868;-89
2023/12/03 02:20:34;;;;;;;;;12.20;11.00;;;;;0.77;80.79;100165.63;5037020;28;8841;-90
2023/12/03 02:23:01;;;;;;;;;9.00;7.40;;;;;0.77;80.29;100175.25;5036826;28;8848;-90
2023/12/03 02:25:29;;;;;;;;;7.00;6.00;;;;;0.78;80.46;100174.34;5036821;28;8987;-89
2023/12/03 02:27:57;;;;;;;;;9.40;8.20;;;;;0.79;80.92;100176.06;5036407;28;8930;-90
2023/12/03 02:30:25;;;;;;;;;12.40;10.80;;;;;0.80;80.08;100175.13;5035758;28;8884;-90
2023/12/03 02:32:52;;;;;;;;;11.20;9.60;;;;;0.81;80.63;100175.09;5036927;28;8917;-90
2023/12/03 02:35:20;;;;;;;;;7.80;6.40;;;;;0.82;80.43;100175.94;5037950;28;8875;-90
2023/12/03 02:37:48;;;;;;;;;11.00;7.20;;;;;0.83;80.20;100180.28;5037661;28;8837;-89
2023/12/03 02:40:15;;;;;;;;;12.00;10.00;;;;;0.82;80.65;100175.94;5037469;28;8841;-90
2023/12/03 02:42:43;;;;;;;;;11.40;11.40;;;;;0.83;80.91;100181.13;5036967;28;8856;-90
2023/12/03 02:45:11;;;;;;;;;8.40;7.80;;;;;0.83;80.45;100177.66;5037017;28;8934;-89
2023/12/03 02:47:38;;;;;;;;;7.00;6.40;;;;;0.83;80.80;100181.13;5037427;28;8887;-90
2023/12/03 02:50:06;;;;;;;;;5.80;4.80;;;;;0.83;80.89;100178.50;5037110;28;8984;-90
2023/12/03 02:52:34;;;;;;;;;15.20;13.40;;;;;0.84;80.80;100174.97;5037408;28;8955;-90
2023/12/03 02:55:01;;;;;;;;;7.20;7.20;;;;;0.84;80.29;100179.38;5037104;28;9506;-90
2023/12/03 02:57:29;;;;;;;;;7.80;7.80;;;;;0.85;80.35;100175.84;5037605;28;8870;-90
2023/12/03 02:59:57;;;;;;;;;8.20;6.20;;;;;0.86;80.57;100186.25;5037461;28;8851;-89
2023/12/03 03:02:25;;;;;;;;;10.80;9.20;;;;;0.87;80.58;100180.13;5037375;28;8972;-90
2023/12/03 03:04:53;;;;;;;;;10.80;10.20;;;;;0.90;80.13;100189.59;5037254;28;9564;-90
2023/12/03 03:07:20;;;;;;;;;4.40;4.00;;;;;0.91;80.45;100188.72;5037454;28;8852;-90
2023/12/03 03:09:48;;;;;;;;;4.80;4.80;;;;;0.94;80.23;100181.59;5037186;28;8856;-90
2023/12/03 03:12:16;;;;;;;;;12.20;11.80;;;;;0.96;80.29;100184.16;5037205;28;8841;-90
2023/12/03 03:14:43;;;;;;;;;10.80;9.20;;;;;0.97;80.41;100183.22;5037268;28;8836;-90
2023/12/03 03:17:11;;;;;;;;;9.20;7.40;;;;;0.99;80.14;100179.66;5040152;28;8836;-89
2023/12/03 03:19:38;;;;;;;;;11.00;10.80;;;;;1.00;80.60;100186.59;5051415;28;8832;-90
2023/12/03 03:22:06;;;;;;;;;4.80;3.80;;;;;1.01;80.43;100180.44;5044508;28;9502;-89
2023/12/03 03:24:34;;;;;;;;;12.40;9.20;;;;;1.02;80.48;100179.53;5036892;28;8840;-90
2023/12/03 03:27:01;;;;;;;;;8.80;7.20;;;;;1.03;79.73;100178.63;5036573;28;8947;-90
2023/12/03 03:29:29;;;;;;;;;8.80;7.20;;;;;1.06;80.33;100183.75;5036401;28;8844;-90
2023/12/03 03:31:57;;;;;;;;;7.00;6.60;;;;;1.07;80.72;100182.84;5036627;28;8844;-90
2023/12/03 03:34:25;;;;;;;;;7.00;6.40;;;;;1.09;80.61;100183.66;5036546;28;8860;-90
2023/12/03 03:36:52;;;;;;;;;11.20;10.80;;;;;1.11;79.94;100187.06;5036431;28;8855;-89
2023/12/03 03:39:19;;;;;;;;;9.00;8.60;;;;;1.13;80.11;100182.59;5035863;28;8872;-90
2023/12/03 03:41:47;;;;;;;;;11.60;10.80;;;;;1.14;80.64;100183.47;5036382;28;8859;-90
2023/12/03 03:44:15;;;;;;;;;12.60;10.20;;;;;1.16;80.03;100186.88;5036473;28;8852;-89
2023/12/03 03:46:42;;;;;;;;;8.20;7.00;;;;;1.17;80.67;100178.97;5036041;28;8864;-90
2023/12/03 03:49:10;;;;;;;;;8.20;7.40;;;;;1.18;80.78;100188.53;5035857;28;8847;-89
2023/12/03 03:51:38;;;;;;;;;11.60;8.20;;;;;1.19;80.42;100198.13;5036487;28;8844;-90
2023/12/03 03:54:06;;;;;;;;;7.00;7.00;;;;;1.20;80.13;100198.94;5036228;28;8833;-90
2023/12/03 03:56:34;;;;;;;;;13.00;10.80;;;;;1.20;80.59;100191.94;5035994;28;8859;-90
2023/12/03 03:59:02;;;;;;;;;10.00;9.00;;;;;1.22;80.13;100199.78;5036447;28;8902;-90
2023/12/03 04:01:30;;;;;;;;;6.40;6.00;;;;;1.22;80.58;100205.84;5035409;28;8844;-90
2023/12/03 04:03:58;;;;;;;;;3.20;3.00;;;;;1.24;80.99;100206.66;5034428;28;8809;-89
2023/12/03 04:06:26;;;;;;;;;6.00;6.00;;;;;1.24;80.11;100209.28;5034779;28;8867;-90
2023/12/03 04:08:54;;;;;;;;;9.60;9.60;;;;;1.26;80.33;100211.84;5034357;28;8836;-90
2023/12/03 04:11:22;;;;;;;;;9.60;9.00;;;;;1.27;80.53;100208.28;5035027;28;8868;-90
2023/12/03 04:13:50;;;;;;;;;9.20;8.40;;;;;1.27;80.23;100209.16;5036356;28;8868;-90
2023/12/03 04:16:17;;;;;;;;;9.20;9.20;;;;;1.28;80.44;100217.91;5035491;28;9498;-89
2023/12/03 04:18:45;;;;;;;;;9.00;8.20;;;;;1.28;80.70;100218.75;5034026;28;8859;-90
2023/12/03 04:21:13;;;;;;;;;7.00;6.00;;;;;1.29;80.85;100224.84;5035105;28;8848;-89
2023/12/03 04:23:41;;;;;;;;;10.40;8.20;;;;;1.30;80.21;100224.78;5034419;28;8856;-90
2023/12/03 04:26:08;;;;;;;;;5.40;5.20;;;;;1.30;80.42;100227.41;5034675;28;8860;-89
2023/12/03 04:28:36;;;;;;;;;13.20;12.00;;;;;1.31;80.26;100231.72;5035251;28;8854;-89
2023/12/03 04:31:04;;;;;;;;;9.80;6.80;;;;;1.31;80.40;100223.84;5035596;28;8836;-89
2023/12/03 04:33:31;;;;;;;;;7.00;6.40;;;;;1.32;80.79;100230.84;5035858;28;8852;-90
2023/12/03 04:35:59;;;;;;;;;14.60;13.40;;;;;1.34;80.70;100228.13;5035396;28;8864;-90
2023/12/03 04:38:26;;;;;;;;;10.20;8.60;;;;;1.35;80.23;100230.72;5035016;28;8844;-90
2023/12/03 04:40:54;;;;;;;;;5.20;4.80;;;;;1.35;80.63;100233.34;5034897;28;8825;-90
2023/12/03 04:43:22;;;;;;;;;9.00;7.40;;;;;1.36;80.59;100234.19;5034889;28;8840;-90
2023/12/03 04:45:50;;;;;;;;;6.40;6.40;;;;;1.36;80.85;100235.03;5034574;28;8925;-89
2023/12/03 04:48:17;;;;;;;;;4.00;3.00;;;;;1.37;81.01;100231.50;5034325;28;8844;-90
2023/12/03 04:50:45;;;;;;;;;6.60;6.20;;;;;1.37;80.38;100239.38;5034790;28;8845;-90
2023/12/03 04:53:13;;;;;;;;;13.00;13.00;;;;;1.38;80.02;100237.59;5036105;28;8891;-90
2023/12/03 04:55:40;;;;;;;;;7.00;6.40;;;;;1.39;80.72;100232.31;5036656;28;8833;-89
2023/12/03 04:58:09;;;;;;;;;9.40;8.80;;;;;1.38;80.49;100229.75;5038781;28;8829;-90
2023/12/03 05:00:37;;;;;;;;;14.60;12.00;;;;;1.38;80.86;100221.88;5039028;28;8848;-89
2023/12/03 05:03:11;;;;;;;;;7.00;6.00;;;;;1.38;80.58;100227.97;5037992;28;8825;-90
2023/12/03 05:05:39;;;;;;;;;8.60;8.60;;;;;1.39;80.66;100228.81;5034492;28;8858;-90
2023/12/03 05:08:08;;;;;;;;;6.20;5.60;;;;;1.39;80.61;100228.81;5037029;28;8860;-90
2023/12/03 05:10:36;;;;;;;;;9.40;7.00;;;;;1.39;80.45;100234.94;5037069;28;9507;-90
2023/12/03 05:13:04;;;;;;;;;7.80;7.80;;;;;1.39;80.45;100241.94;5037516;28;9529;-90
2023/12/03 05:15:31;;;;;;;;;7.00;5.60;;;;;1.39;81.01;100237.56;5041253;28;8826;-89
2023/12/03 05:17:59;;;;;;;;;8.80;7.80;;;;;1.40;81.15;100239.28;5038748;28;8829;-90
2023/12/03 05:20:27;;;;;;;;;8.40;8.20;;;;;1.40;80.48;100239.28;5037844;28;8837;-90
2023/12/03 05:22:54;;;;;;;;;12.40;10.60;;;;;1.41;80.79;100240.09;5037537;28;8856;-90
2023/12/03 05:25:24;;;;;;;;;7.00;6.60;;;;;1.40;80.70;100241.03;5039019;28;8844;-90
2023/12/03 05:27:51;;;;;;;;;6.40;4.80;;;;;1.40;80.59;100244.50;5041095;28;8848;-89
2023/12/03 05:30:19;;;;;;;;;11.40;9.20;;;;;1.40;80.98;100249.75;5037585;28;8867;-89
2023/12/03 05:32:47;;;;;;;;;7.20;7.20;;;;;1.40;80.55;100252.38;5040769;28;8833;-89
2023/12/03 05:35:15;;;;;;;;;12.40;9.80;;;;;1.41;80.78;100251.47;5039203;28;8926;-90
2023/12/03 05:37:43;;;;;;;;;6.20;4.40;;;;;1.41;81.35;100254.09;5036011;28;8868;-90
2023/12/03 05:40:11;;;;;;;;;6.40;5.20;;;;;1.41;80.69;100263.72;5035907;28;8844;-90
2023/12/03 05:42:38;;;;;;;;;9.40;8.60;;;;;1.40;80.66;100260.25;5035430;28;8828;-89
2023/12/03 05:45:06;;;;;;;;;7.80;6.20;;;;;1.40;81.36;100260.25;5034844;28;8845;-90
2023/12/03 05:47:36;;;;;;;;;6.00;5.20;;;;;1.41;81.37;100268.97;5034663;28;8848;-90
2023/12/03 05:50:04;;;;;;;;;6.00;3.20;;;;;1.40;80.78;100270.75;5034213;28;8856;-89
2023/12/03 05:52:32;;;;;;;;;7.80;6.60;;;;;1.41;81.26;100271.59;5034901;28;8844;-90
2023/12/03 05:54:59;;;;;;;;;3.20;3.00;;;;;1.41;81.19;100266.34;5034818;28;8854;-90
2023/12/03 05:57:28;;;;;;;;;9.00;5.60;;;;;1.42;81.29;100268.91;5035021;28;8859;-90
2023/12/03 05:59:55;;;;;;;;;7.40;7.40;;;;;1.43;81.22;100273.25;5034828;28;8925;-89
2023/12/03 06:02:23;;;;;;;;;5.00;5.00;;;;;1.44;80.98;100266.25;5034860;28;8848;-89
2023/12/03 06:04:51;;;;;;;;;9.80;9.20;;;;;1.43;80.77;100270.63;5034832;28;8875;-90
2023/12/03 06:07:18;;;;;;;;;4.80;4.60;;;;;1.44;80.50;100274.94;5034408;28;8825;-91
2023/12/03 06:09:46;;;;;;;;;9.60;8.20;;;;;1.44;81.04;100269.69;5033854;28;8918;-90
2023/12/03 06:12:14;;;;;;;;;5.20;5.20;;;;;1.44;81.38;100271.50;5034289;28;8878;-90
2023/12/03 06:14:41;;;;;;;;;5.60;4.00;;;;;1.45;80.53;100281.91;5034708;28;8963;-91
2023/12/03 06:17:09;;;;;;;;;7.80;6.40;;;;;1.45;81.23;100274.03;5034569;28;8856;-90
2023/12/03 06:19:37;;;;;;;;;3.60;2.20;;;;;1.44;81.11;100282.81;5038066;28;8844;-90
2023/12/03 06:22:05;;;;;;;;;9.20;6.40;;;;;1.45;81.09;100281.06;5038135;28;8844;-90
2023/12/03 06:24:33;;;;;;;;;6.60;6.20;;;;;1.45;80.86;100281.06;5037967;28;8849;-90
2023/12/03 06:27:00;;;;;;;;;10.80;9.20;;;;;1.44;81.38;100274.94;5038134;28;8833;-90
2023/12/03 06:29:28;;;;;;;;;11.80;11.20;;;;;1.44;81.22;100280.19;5037728;28;8844;-91
2023/12/03 06:31:56;;;;;;;;;4.80;4.40;;;;;1.44;80.77;100284.59;5037520;28;8860;-90
2023/12/03 06:34:23;;;;;;;;;5.40;5.40;;;;;1.43;81.26;100286.34;5038083;28;8871;-90
2023/12/03 06:36:51;;;;;;;;;6.80;6.20;;;;;1.43;81.35;100285.47;5037886;28;8852;-90
2023/12/03 06:39:19;;;;;;;;;6.00;5.80;;;;;1.43;81.27;100302.09;5037684;28;8845;-90
2023/12/03 06:41:47;;;;;;;;;7.00;7.00;;;;;1.42;81.05;100295.16;5038023;28;8856;-89
2023/12/03 06:44:14;;;;;;;;;14.60;9.60;;;;;1.42;81.33;100292.53;5037881;28;8884;-90
2023/12/03 06:46:48;;;;;;;;;11.20;8.60;;;;;1.41;80.90;100293.44;5037637;28;8852;-90
2023/12/03 06:49:16;;;;;;;;;6.40;6.20;;;;;1.42;80.92;100300.38;5037665;28;8852;-90
2023/12/03 06:51:44;;;;;;;;;8.60;7.40;;;;;1.41;81.52;100293.44;5037385;28;9014;-90
2023/12/03 06:54:12;;;;;;;;;5.60;5.60;;;;;1.43;81.52;100301.22;5037325;28;8922;-90
2023/12/03 06:56:39;;;;;;;;;8.00;7.80;;;;;1.42;81.20;100299.53;5037316;28;9530;-90
2023/12/03 06:59:07;;;;;;;;;5.80;5.20;;;;;1.42;81.48;100302.16;5037451;28;8844;-90
2023/12/03 07:01:35;;;;;;;;;4.80;4.80;;;;;1.41;80.93;100303.06;5037170;28;8925;-90
2023/12/03 07:04:05;;;;;;;;;7.80;6.60;;;;;1.42;80.65;100310.00;5037186;28;8892;-90
2023/12/03 07:06:32;;;;;;;;;3.40;3.40;;;;;1.41;81.34;100306.56;5037331;28;8868;-90
2023/12/03 07:09:00;;;;;;;;;8.20;7.40;;;;;1.40;81.04;100310.09;5036769;28;8849;-90
2023/12/03 07:11:48;;;;;;;;;3.60;3.40;;;;;1.40;80.88;100323.22;5046791;28;8895;-89
2023/12/03 07:14:15;;;;;;;;;6.00;6.00;;;;;1.39;80.77;100313.63;5049131;28;8867;-90
2023/12/03 07:16:43;;;;;;;;;5.20;5.20;;;;;1.39;81.12;100318.88;5039837;28;8870;-90
2023/12/03 07:19:11;;;;;;;;;3.80;3.80;;;;;1.39;81.35;100318.88;5036559;28;8837;-90
2023/12/03 07:21:38;;;;;;;;;3.60;2.80;;;;;1.38;81.13;100330.25;5036279;28;8867;-89
2023/12/03 07:24:07;;;;;;;;;4.40;4.20;;;;;1.38;81.31;100332.88;5036830;28;8857;-89
2023/12/03 07:26:35;;;;;;;;;4.60;3.80;;;;;1.38;80.75;100330.25;5036343;28;9002;-89
2023/12/03 07:29:02;;;;;;;;;9.00;8.20;;;;;1.38;81.17;100335.50;5035373;28;8880;-89
2023/12/03 07:31:31;;;;;;;;;3.00;3.00;;;;;1.38;81.52;100332.88;5035723;28;8922;-89
2023/12/03 07:33:59;;;;;;;;;7.80;6.40;;;;;1.38;80.94;100324.16;5036536;28;8847;-90
2023/12/03 07:36:26;;;;;;;;;5.60;5.60;;;;;1.38;81.08;100318.91;5036757;28;8836;-90
2023/12/03 07:38:54;;;;;;;;;7.00;6.80;;;;;1.38;80.97;100332.88;5036190;28;8828;-90
2023/12/03 07:41:22;;;;;;;;;12.00;10.00;;;;;1.38;80.97;100337.28;5036096;28;8861;-91
2023/12/03 07:43:49;;;;;;;;;5.40;4.80;;;;;1.38;81.21;100340.75;5036810;28;8848;-90
2023/12/03 07:46:17;;;;;;;;;5.80;4.40;;;;;1.37;80.81;100338.19;5036557;28;8848;-90
2023/12/03 07:48:45;;;;;;;;;1.80;1.80;;;;;1.34;81.19;100328.66;5036538;28;8887;-90
2023/12/03 07:51:13;;;;;;;;;7.40;7.00;;;;;1.32;81.09;100332.25;5036110;28;8871;-90
2023/12/03 07:53:41;;;;;;;;;6.20;6.20;;;;;1.31;80.54;100336.63;5035945;28;8825;-90
2023/12/03 07:56:09;;;;;;;;;3.00;3.00;;;;;1.30;80.38;100337.53;5035912;28;8847;-91
2023/12/03 07:58:36;;;;;;;;;9.20;8.60;;;;;1.28;81.24;100339.38;5035995;28;8871;-91
2023/12/03 08:01:05;;;;;;;;;1.00;1.00;;;;;1.28;80.83;100342.00;5035966;28;8895;-91
2023/12/03 08:03:33;;;;;;;;;4.80;4.40;;;;;1.30;80.81;100344.56;5036163;28;8864;-91
2023/12/03 08:06:00;;;;;;;;;6.40;6.40;;;;;1.29;80.62;100351.56;5036155;28;8860;-91
2023/12/03 08:08:28;;;;;;;;;3.80;3.00;;;;;1.30;80.69;100349.81;5035830;28;8840;-90
2023/12/03 08:10:56;;;;;;;;;0.20;0.00;;;;;1.31;80.94;100360.22;5036046;28;8976;-91
2023/12/03 08:13:25;;;;;;;;;9.00;7.00;;;;;1.32;81.25;100356.72;5035869;28;8950;-91
2023/12/03 08:15:52;;;;;;;;;9.00;6.40;;;;;1.34;80.73;100354.03;5035977;28;8971;-91
2023/12/03 08:18:20;;;;;;;;;3.20;3.20;;;;;1.34;80.65;100357.53;5035689;28;8851;-91
2023/12/03 08:20:48;;;;;;;;;3.80;3.00;;;;;1.36;80.42;100363.56;5035453;28;8848;-91
2023/12/03 08:23:16;;;;;;;;;4.80;3.40;;;;;1.37;80.77;100375.75;5035352;28;9564;-90
2023/12/03 08:25:43;;;;;;;;;0.60;0.00;;;;;1.38;80.15;100364.34;5035608;28;8856;-92
2023/12/03 08:28:11;;;;;;;;;5.20;5.20;;;;;1.38;80.32;100364.34;5035398;28;8860;-91
2023/12/03 08:30:39;;;;;;;;;5.40;3.80;;;;;1.42;80.32;100368.59;5035006;28;8852;-91
2023/12/03 08:33:07;;;;;;;;;10.00;5.80;;;;;1.43;80.07;100374.69;5035508;28;8942;-91
2023/12/03 08:35:34;;;;;;;;;7.00;7.00;;;;;1.44;80.99;100382.50;5035592;28;8879;-90
2023/12/03 08:38:02;;;;;;;;;8.20;8.20;;;;;1.45;80.85;100380.75;5035250;28;8852;-91
2023/12/03 08:40:30;;;;;;;;;8.00;6.80;;;;;1.47;80.40;100381.53;5035135;28;8861;-91
2023/12/03 08:42:58;;;;;;;;;7.20;6.20;;;;;1.48;80.54;100383.25;5035652;28;8853;-91
2023/12/03 08:45:25;;;;;;;;;3.00;1.00;;;;;1.50;80.61;100391.91;5035565;28;8963;-90
2023/12/03 08:47:54;;;;;;;;;6.00;6.00;;;;;1.55;79.99;100390.00;5034986;28;8938;-91
2023/12/03 08:50:27;;;;;;;;;7.40;6.40;;;;;1.56;80.11;100403.06;5035432;28;8968;-90
2023/12/03 08:52:54;;;;;;;;;5.20;4.40;;;;;1.59;80.13;100397.69;5036042;28;8856;-91
2023/12/03 08:55:22;;;;;;;;;3.00;2.80;;;;;1.63;79.62;100399.31;5035546;28;8848;-91
2023/12/03 08:57:50;;;;;;;;;3.00;3.00;;;;;1.65;80.33;100392.22;5035444;28;8848;-90
2023/12/03 09:00:18;;;;;;;;;5.20;4.40;;;;;1.69;80.32;100391.22;5035620;28;9605;-90
2023/12/03 09:02:46;;;;;;;;;6.20;5.60;;;;;1.73;79.63;100391.94;5035868;28;8871;-91
2023/12/03 09:05:14;;;;;;;;;6.00;6.00;;;;;1.73;80.18;100395.44;5035566;28;8887;-90
2023/12/03 09:07:42;;;;;;;;;9.40;8.20;;;;;1.70;80.33;100400.81;5035202;28;8836;-90
2023/12/03 09:10:10;;;;;;;;;9.80;8.20;;;;;1.65;80.29;100407.09;5035548;28;8936;-91
2023/12/03 09:12:39;;;;;;;;;6.00;3.20;;;;;1.60;80.65;100394.16;5035378;28;8837;-90
2023/12/03 09:15:07;;;;;;;;;6.40;6.40;;;;;1.61;79.75;100400.28;5035046;28;8840;-91
2023/12/03 09:17:34;;;;;;;;;7.80;7.00;;;;;1.63;79.81;100404.56;5035003;28;8861;-91
2023/12/03 09:20:02;;;;;;;;;8.60;8.60;;;;;1.64;79.82;100401.00;5034579;28;8852;-90
2023/12/03 09:22:35;;;;;;;;;6.00;6.00;;;;;1.66;80.45;100401.81;5034787;28;8935;-90
2023/12/03 09:25:03;;;;;;;;;4.80;4.60;;;;;1.69;79.74;100399.09;5034713;28;8853;-91
2023/12/03 09:27:30;;;;;;;;;9.00;8.20;;;;;1.72;80.11;100408.59;5034457;28;8864;-91
2023/12/03 09:29:58;;;;;;;;;9.40;7.60;;;;;1.71;79.65;100401.63;5033287;28;8972;-90
2023/12/03 09:32:26;;;;;;;;;3.60;2.20;;;;;1.73;79.85;100402.44;5032690;28;9656;-90
2023/12/03 09:34:54;;;;;;;;;7.00;6.40;;;;;1.73;80.29;100394.56;5033476;28;8841;-91
2023/12/03 09:37:22;;;;;;;;;7.00;6.60;;;;;1.75;80.27;100401.47;5033651;28;9633;-90
2023/12/03 09:39:50;;;;;;;;;3.60;1.40;;;;;1.77;79.88;100397.03;5034298;28;8853;-90
2023/12/03 09:42:18;;;;;;;;;6.80;6.20;;;;;1.82;79.84;100391.63;5034085;28;8971;-90
2023/12/03 09:44:46;;;;;;;;;7.00;7.00;;;;;1.87;80.13;100394.91;5034618;28;9671;-91
2023/12/03 09:47:14;;;;;;;;;4.40;4.40;;;;;1.94;79.71;100404.25;5033857;28;8902;-90
2023/12/03 09:49:42;;;;;;;;;6.60;6.60;;;;;2.01;79.16;100400.50;5032894;28;8868;-91
2023/12/03 09:52:10;;;;;;;;;9.40;6.80;;;;;2.04;80.02;100403.03;5032641;28;8848;-90
2023/12/03 09:54:38;;;;;;;;;4.60;3.60;;;;;2.10;79.27;100414.16;5036444;28;8867;-89
2023/12/03 09:57:06;;;;;;;;;10.00;9.40;;;;;2.13;78.90;100414.00;5035757;28;8841;-90
2023/12/03 09:59:34;;;;;;;;;4.20;3.00;;;;;2.17;79.30;100418.25;5037535;28;8963;-90
2023/12/03 10:02:03;;;;;;;;;6.80;6.00;;;;;2.14;78.96;100413.09;5038066;28;8954;-90
2023/12/03 10:04:30;;;;;;;;;6.00;6.00;;;;;2.10;79.02;100416.78;5038000;28;8857;-90
2023/12/03 10:06:59;;;;;;;;;4.80;4.80;;;;;2.08;79.11;100410.72;5037092;28;8840;-90
2023/12/03 10:09:27;;;;;;;;;4.00;4.00;;;;;2.33;79.30;100413.25;5037708;28;8981;-91
2023/12/03 10:11:55;;;;;;;;;6.80;6.40;;;;;2.60;78.38;100406.91;5036160;28;8845;-90
2023/12/03 10:14:23;;;;;;;;;7.00;6.00;;;;;2.85;78.51;100408.50;5037770;28;8855;-90
2023/12/03 10:16:50;;;;;;;;;9.00;8.60;;;;;2.98;78.65;100409.72;5037328;28;8852;-90
2023/12/03 10:19:18;;;;;;;;;6.40;6.20;;;;;3.09;78.63;100411.91;5037424;28;8844;-90
2023/12/03 10:21:48;;;;;;;;;8.20;7.00;;;;;3.24;78.08;100412.09;5037192;28;8841;-90
2023/12/03 10:24:16;;;;;;;;;1.00;0.60;;;;;3.55;78.07;100415.09;5036854;28;8846;-90
2023/12/03 10:26:44;;;;;;;;;9.00;6.60;;;;;4.01;76.75;100412.13;5036789;28;9553;-91
2023/12/03 10:29:12;;;;;;;;;4.80;4.00;;;;;4.49;75.42;100400.16;5037508;28;8861;-90
2023/12/03 10:31:40;;;;;;;;;6.40;5.60;;;;;4.88;74.78;100397.38;5037593;28;8871;-91
2023/12/03 10:34:08;;;;;;;;;7.00;6.00;;;;;5.34;74.20;100395.00;5037880;28;8879;-90
2023/12/03 10:36:37;;;;;;;;;5.60;3.00;;;;;5.82;73.34;100388.97;5037523;28;8840;-90
2023/12/03 10:39:05;;;;;;;;;9.60;6.40;;;;;6.26;72.66;100384.78;5037664;28;8871;-90
2023/12/03 10:41:32;;;;;;;;;4.00;4.00;;;;;6.45;72.14;100380.19;5037869;28;9005;-90
2023/12/03 10:44:00;;;;;;;;;6.80;5.60;;;;;6.51;71.76;100378.03;5037484;28;8840;-90
2023/12/03 10:46:28;;;;;;;;;9.00;7.40;;;;;6.37;72.67;100379.75;5036949;28;8852;-90
2023/12/03 10:48:56;;;;;;;;;6.60;6.60;;;;;6.13;72.37;100381.09;5036857;28;8837;-90
2023/12/03 10:51:24;;;;;;;;;7.40;7.00;;;;;5.84;73.26;100384.47;5036667;28;8926;-89
2023/12/03 10:53:55;;;;;;;;;9.40;6.00;;;;;5.65;73.75;100388.97;5036643;28;8852;-89
2023/12/03 10:56:23;;;;;;;;;9.40;8.40;;;;;5.47;74.46;100385.50;5036527;28;8840;-91
2023/12/03 10:58:53;;;;;;;;;6.40;4.40;;;;;5.26;74.30;100376.03;5036285;28;8832;-89
2023/12/03 11:01:21;;;;;;;;;10.40;8.60;;;;;5.18;74.49;100372.94;5038312;28;8883;-89
2023/12/03 11:03:49;;;;;;;;;6.60;5.20;;;;;5.09;74.39;100369.94;5054454;28;8848;-90
2023/12/03 11:06:17;;;;;;;;;6.80;6.00;;;;;5.06;74.81;100373.56;5054712;28;8935;-90
2023/12/03 11:08:45;;;;;;;;;9.00;4.80;;;;;5.12;74.41;100367.13;5036732;28;8829;-89
2023/12/03 11:11:13;;;;;;;;;4.80;3.80;;;;;5.14;74.00;100370.53;5036728;28;8857;-89
2023/12/03 11:13:40;;;;;;;;;6.60;6.40;;;;;4.99;74.55;100373.94;5036897;28;8856;-90
2023/12/03 11:16:14;;;;;;;;;7.60;6.20;;;;;4.75;74.94;100375.16;5036887;28;8934;-90
2023/12/03 11:18:42;;;;;;;;;7.40;6.80;;;;;4.55;75.59;100370.88;5037295;28;8848;-90
2023/12/03 11:21:11;;;;;;;;;4.60;4.20;;;;;4.45;75.68;100374.00;5036403;28;8857;-90
2023/12/03 11:23:39;;;;;;;;;9.00;5.60;;;;;4.46;75.52;100370.44;5036268;28;8876;-90
2023/12/03 11:26:06;;;;;;;;;6.00;6.00;;;;;4.49;75.31;100370.31;5035528;28;8908;-90
2023/12/03 11:28:34;;;;;;;;;3.00;3.00;;;;;4.60;75.27;100370.63;5034840;28;8844;-90
2023/12/03 11:31:02;;;;;;;;;6.20;6.00;;;;;4.82;73.97;100371.28;5035005;28;8869;-89
2023/12/03 11:33:30;;;;;;;;;7.40;6.80;;;;;5.08;73.40;100368.22;5034826;28;9362;-89
2023/12/03 11:35:58;;;;;;;;;9.00;7.00;;;;;5.31;72.61;100357.34;5034883;28;8841;-89
2023/12/03 11:38:26;;;;;;;;;10.40;9.00;;;;;5.51;72.58;100362.41;5035336;28;8836;-90
2023/12/03 11:40:54;;;;;;;;;2.60;1.00;;;;;5.67;72.55;100358.91;5035014;28;8849;-90
2023/12/03 11:43:23;;;;;;;;;9.00;9.00;;;;;5.93;71.80;100358.38;5036682;28;8844;-90